sensor_id;sensor_type;location;lat;lon;timestamp;pressure;altitude;pressure_sealevel;temperature;humidity
64192;BME280;50497;50.720;-2.084;2023-02-10T00:01:30;103622.84;;;-0.50;100.00
64192;BME280;50497;50.720;-2.084;2023-02-10T00:03:55;103624.34;;;-0.56;100.00
64192;BME280;50497;50.720;-2.084;2023-02-10T00:06:23;103629.25;;;-0.63;100.00
64192;BME280;50497;50.720;-2.084;2023-02-10T00:08:54;103621.31;;;-0.84;100.00
64192;BME280;50497;50.720;-2.084;2023-02-10T00:11:21;103616.50;;;-0.93;100.00
64192;BME280;50497;50.720;-2.084;2023-02-10T00:14:06;103649.22;;;-0.86;100.00
64192;BME280;50497;50.720;-2.084;2023-02-10T00:16:32;103632.00;;;-0.99;100.00
64192;BME280;50497;50.720;-2.084;2023-02-10T00:18:57;103648.00;;;-0.95;100.00
64192;BME280;50497;50.720;-2.084;2023-02-10T00:21:23;103630.13;;;-1.02;100.00
64192;BME280;50497;50.720;-2.084;2023-02-10T00:23:51;103629.09;;;-1.05;100.00
64192;BME280;50497;50.720;-2.084;2023-02-10T00:26:17;103651.53;;;-1.12;100.00
64192;BME280;50497;50.720;-2.084;2023-02-10T00:28:42;103638.66;;;-1.25;100.00
64192;BME280;50497;50.720;-2.084;2023-02-10T00:31:14;103656.06;;;-1.09;100.00
64192;BME280;50497;50.720;-2.084;2023-02-10T00:33:48;103636.25;;;-1.21;100.00
64192;BME280;50497;50.720;-2.084;2023-02-10T00:36:15;103662.66;;;-1.18;100.00
64192;BME280;50497;50.720;-2.084;2023-02-10T00:38:41;103651.84;;;-1.06;100.00
64192;BME280;50497;50.720;-2.084;2023-02-10T00:41:09;103649.47;;;-1.00;100.00
64192;BME280;50497;50.720;-2.084;2023-02-10T00:43:35;103639.53;;;-1.07;100.00
64192;BME280;50497;50.720;-2.084;2023-02-10T00:46:02;103644.78;;;-1.07;100.00
64192;BME280;50497;50.720;-2.084;2023-02-10T00:48:32;103623.78;;;-1.25;100.00
64192;BME280;50497;50.720;-2.084;2023-02-10T00:50:57;103628.88;;;-1.28;100.00
64192;BME280;50497;50.720;-2.084;2023-02-10T00:53:23;103638.25;;;-1.15;100.00
64192;BME280;50497;50.720;-2.084;2023-02-10T00:55:49;103648.59;;;-1.18;100.00
64192;BME280;50497;50.720;-2.084;2023-02-10T00:58:14;103667.47;;;-1.09;100.00
64192;BME280;50497;50.720;-2.084;2023-02-10T01:00:39;103673.31;;;-1.15;100.00
64192;BME280;50497;50.720;-2.084;2023-02-10T01:03:05;103639.09;;;-1.16;100.00
64192;BME280;50497;50.720;-2.084;2023-02-10T01:05:30;103671.75;;;-1.11;100.00
64192;BME280;50497;50.720;-2.084;2023-02-10T01:07:56;103650.56;;;-1.14;100.00
64192;BME280;50497;50.720;-2.084;2023-02-10T01:10:22;103652.06;;;-1.01;100.00
64192;BME280;50497;50.720;-2.084;2023-02-10T01:12:47;103658.38;;;-0.98;100.00
64192;BME280;50497;50.720;-2.084;2023-02-10T01:15:13;103636.97;;;-1.05;100.00
64192;BME280;50497;50.720;-2.084;2023-02-10T01:17:38;103647.94;;;-0.96;100.00
64192;BME280;50497;50.720;-2.084;2023-02-10T01:20:05;103642.97;;;-1.08;100.00
64192;BME280;50497;50.720;-2.084;2023-02-10T01:22:32;103638.97;;;-1.00;100.00
64192;BME280;50497;50.720;-2.084;2023-02-10T01:24:58;103622.78;;;-1.09;100.00
64192;BME280;50497;50.720;-2.084;2023-02-10T01:27:23;103605.97;;;-1.13;100.00
64192;BME280;50497;50.720;-2.084;2023-02-10T01:29:49;103620.81;;;-1.13;100.00
64192;BME280;50497;50.720;-2.084;2023-02-10T01:32:14;103651.00;;;-1.05;100.00
64192;BME280;50497;50.720;-2.084;2023-02-10T01:34:39;103660.53;;;-1.07;100.00
64192;BME280;50497;50.720;-2.084;2023-02-10T01:37:05;103638.03;;;-1.20;100.00
64192;BME280;50497;50.720;-2.084;2023-02-10T01:39:30;103643.00;;;-1.26;100.00
64192;BME280;50497;50.720;-2.084;2023-02-10T01:41:55;103644.44;;;-1.33;100.00
64192;BME280;50497;50.720;-2.084;2023-02-10T01:46:47;103666.13;;;-1.37;100.00
64192;BME280;50497;50.720;-2.084;2023-02-10T01:49:19;103668.44;;;-1.43;100.00
64192;BME280;50497;50.720;-2.084;2023-02-10T01:51:54;103643.31;;;-1.56;100.00
64192;BME280;50497;50.720;-2.084;2023-02-10T01:54:25;103645.84;;;-1.57;100.00
64192;BME280;50497;50.720;-2.084;2023-02-10T01:56:52;103655.19;;;-1.46;100.00
64192;BME280;50497;50.720;-2.084;2023-02-10T01:59:25;103670.16;;;-1.43;100.00
64192;BME280;50497;50.720;-2.084;2023-02-10T02:01:54;103663.06;;;-1.46;100.00
64192;BME280;50497;50.720;-2.084;2023-02-10T02:04:24;103667.38;;;-1.46;100.00
64192;BME280;50497;50.720;-2.084;2023-02-10T02:06:49;103644.81;;;-1.61;100.00
64192;BME280;50497;50.720;-2.084;2023-02-10T02:09:15;103641.06;;;-1.66;100.00
64192;BME280;50497;50.720;-2.084;2023-02-10T02:11:53;103660.03;;;-1.54;100.00
64192;BME280;50497;50.720;-2.084;2023-02-10T02:20:07;103659.44;;;-1.66;100.00
64192;BME280;50497;50.720;-2.084;2023-02-10T02:25:55;103660.16;;;-1.69;100.00
64192;BME280;50497;50.720;-2.084;2023-02-10T02:29:16;103662.63;;;-1.72;100.00
64192;BME280;50497;50.720;-2.084;2023-02-10T02:36:38;103656.34;;;-1.75;100.00
64192;BME280;50497;50.720;-2.084;2023-02-10T02:39:06;103664.59;;;-1.68;100.00
64192;BME280;50497;50.720;-2.084;2023-02-10T02:41:32;103666.22;;;-1.70;100.00
64192;BME280;50497;50.720;-2.084;2023-02-10T02:43:59;103663.69;;;-1.68;100.00
64192;BME280;50497;50.720;-2.084;2023-02-10T02:46:55;103665.09;;;-1.75;100.00
64192;BME280;50497;50.720;-2.084;2023-02-10T02:52:10;103651.22;;;-1.90;100.00
64192;BME280;50497;50.720;-2.084;2023-02-10T02:54:46;103665.78;;;-1.79;100.00
64192;BME280;50497;50.720;-2.084;2023-02-10T02:57:27;103671.47;;;-1.70;100.00
64192;BME280;50497;50.720;-2.084;2023-02-10T03:00:20;103671.84;;;-1.80;100.00
64192;BME280;50497;50.720;-2.084;2023-02-10T03:02:50;103660.38;;;-1.82;100.00
64192;BME280;50497;50.720;-2.084;2023-02-10T03:05:22;103662.19;;;-1.81;100.00
64192;BME280;50497;50.720;-2.084;2023-02-10T03:07:49;103650.84;;;-1.80;100.00
64192;BME280;50497;50.720;-2.084;2023-02-10T03:10:18;103657.16;;;-1.76;100.00
64192;BME280;50497;50.720;-2.084;2023-02-10T03:12:44;103643.00;;;-1.96;100.00
64192;BME280;50497;50.720;-2.084;2023-02-10T03:15:09;103662.59;;;-1.90;100.00
64192;BME280;50497;50.720;-2.084;2023-02-10T03:17:36;103660.91;;;-1.89;100.00
64192;BME280;50497;50.720;-2.084;2023-02-10T03:20:02;103646.69;;;-2.11;100.00
64192;BME280;50497;50.720;-2.084;2023-02-10T03:22:28;103653.34;;;-1.99;100.00
64192;BME280;50497;50.720;-2.084;2023-02-10T03:24:53;103648.81;;;-1.86;100.00
64192;BME280;50497;50.720;-2.084;2023-02-10T03:27:19;103660.06;;;-1.88;100.00
64192;BME280;50497;50.720;-2.084;2023-02-10T03:29:44;103661.63;;;-1.92;100.00
64192;BME280;50497;50.720;-2.084;2023-02-10T03:32:09;103660.06;;;-1.88;100.00
64192;BME280;50497;50.720;-2.084;2023-02-10T03:34:35;103643.22;;;-2.10;100.00
64192;BME280;50497;50.720;-2.084;2023-02-10T03:37:00;103661.81;;;-2.05;100.00
64192;BME280;50497;50.720;-2.084;2023-02-10T03:39:26;103664.25;;;-1.92;100.00
64192;BME280;50497;50.720;-2.084;2023-02-10T03:41:51;103663.34;;;-1.92;100.00
64192;BME280;50497;50.720;-2.084;2023-02-10T03:44:19;103666.78;;;-1.93;100.00
64192;BME280;50497;50.720;-2.084;2023-02-10T03:46:44;103657.38;;;-2.06;100.00
64192;BME280;50497;50.720;-2.084;2023-02-10T03:49:09;103639.44;;;-2.15;100.00
64192;BME280;50497;50.720;-2.084;2023-02-10T03:51:35;103662.53;;;-2.08;100.00
64192;BME280;50497;50.720;-2.084;2023-02-10T03:54:04;103658.47;;;-2.02;100.00
64192;BME280;50497;50.720;-2.084;2023-02-10T03:56:29;103647.00;;;-2.21;100.00
64192;BME280;50497;50.720;-2.084;2023-02-10T03:58:59;103656.09;;;-2.14;100.00
64192;BME280;50497;50.720;-2.084;2023-02-10T04:01:24;103645.03;;;-2.25;100.00
64192;BME280;50497;50.720;-2.084;2023-02-10T04:03:52;103652.41;;;-2.18;100.00
64192;BME280;50497;50.720;-2.084;2023-02-10T04:06:18;103627.31;;;-2.29;100.00
64192;BME280;50497;50.720;-2.084;2023-02-10T04:08:43;103640.22;;;-2.17;100.00
64192;BME280;50497;50.720;-2.084;2023-02-10T04:11:09;103641.25;;;-2.14;100.00
64192;BME280;50497;50.720;-2.084;2023-02-10T04:13:35;103633.88;;;-2.21;100.00
64192;BME280;50497;50.720;-2.084;2023-02-10T04:16:07;103618.03;;;-2.40;100.00
64192;BME280;50497;50.720;-2.084;2023-02-10T04:18:36;103636.50;;;-2.37;100.00
64192;BME280;50497;50.720;-2.084;2023-02-10T04:21:04;103636.41;;;-2.23;100.00
64192;BME280;50497;50.720;-2.084;2023-02-10T04:23:33;103632.09;;;-2.22;100.00
64192;BME280;50497;50.720;-2.084;2023-02-10T04:25:59;103627.28;;;-2.31;100.00
64192;BME280;50497;50.720;-2.084;2023-02-10T04:28:25;103634.91;;;-2.35;100.00
64192;BME280;50497;50.720;-2.084;2023-02-10T04:30:53;103621.47;;;-2.42;100.00
64192;BME280;50497;50.720;-2.084;2023-02-10T04:33:19;103609.06;;;-2.44;100.00
64192;BME280;50497;50.720;-2.084;2023-02-10T04:35:47;103624.06;;;-2.42;100.00
64192;BME280;50497;50.720;-2.084;2023-02-10T04:38:13;103623.91;;;-2.45;100.00
64192;BME280;50497;50.720;-2.084;2023-02-10T04:40:39;103624.59;;;-2.49;100.00
64192;BME280;50497;50.720;-2.084;2023-02-10T04:43:05;103648.81;;;-2.36;100.00
64192;BME280;50497;50.720;-2.084;2023-02-10T04:45:30;103650.56;;;-2.53;100.00
64192;BME280;50497;50.720;-2.084;2023-02-10T04:47:56;103651.69;;;-2.65;100.00
64192;BME280;50497;50.720;-2.084;2023-02-10T04:50:21;103670.47;;;-2.57;100.00
64192;BME280;50497;50.720;-2.084;2023-02-10T04:52:47;103657.69;;;-2.67;100.00
64192;BME280;50497;50.720;-2.084;2023-02-10T04:55:16;103675.88;;;-2.54;100.00
64192;BME280;50497;50.720;-2.084;2023-02-10T04:57:42;103657.81;;;-2.64;100.00
64192;BME280;50497;50.720;-2.084;2023-02-10T05:00:08;103677.91;;;-2.65;100.00
64192;BME280;50497;50.720;-2.084;2023-02-10T05:02:33;103657.97;;;-2.78;100.00
64192;BME280;50497;50.720;-2.084;2023-02-10T05:05:02;103655.53;;;-2.74;100.00
64192;BME280;50497;50.720;-2.084;2023-02-10T05:07:28;103660.50;;;-2.79;100.00
64192;BME280;50497;50.720;-2.084;2023-02-10T05:09:53;103691.59;;;-2.70;100.00
64192;BME280;50497;50.720;-2.084;2023-02-10T05:12:22;103695.81;;;-2.72;100.00
64192;BME280;50497;50.720;-2.084;2023-02-10T05:14:48;103676.16;;;-2.81;100.00
64192;BME280;50497;50.720;-2.084;2023-02-10T05:17:13;103699.28;;;-2.73;100.00
64192;BME280;50497;50.720;-2.084;2023-02-10T05:19:39;103676.00;;;-2.84;100.00
64192;BME280;50497;50.720;-2.084;2023-02-10T05:22:08;103699.69;;;-2.82;100.00
64192;BME280;50497;50.720;-2.084;2023-02-10T05:24:33;103696.97;;;-2.84;100.00
64192;BME280;50497;50.720;-2.084;2023-02-10T05:27:03;103703.81;;;-2.86;100.00
64192;BME280;50497;50.720;-2.084;2023-02-10T05:29:28;103701.72;;;-2.76;100.00
64192;BME280;50497;50.720;-2.084;2023-02-10T05:31:54;103678.63;;;-2.84;100.00
64192;BME280;50497;50.720;-2.084;2023-02-10T05:34:19;103669.72;;;-3.02;100.00
64192;BME280;50497;50.720;-2.084;2023-02-10T05:36:45;103695.81;;;-2.89;100.00
64192;BME280;50497;50.720;-2.084;2023-02-10T05:39:11;103679.66;;;-2.97;100.00
64192;BME280;50497;50.720;-2.084;2023-02-10T05:41:52;103670.28;;;-3.08;100.00
64192;BME280;50497;50.720;-2.084;2023-02-10T05:44:19;103674.16;;;-3.01;100.00
64192;BME280;50497;50.720;-2.084;2023-02-10T05:46:44;103684.22;;;-2.92;100.00
64192;BME280;50497;50.720;-2.084;2023-02-10T05:49:10;103688.28;;;-2.83;100.00
64192;BME280;50497;50.720;-2.084;2023-02-10T05:51:35;103688.53;;;-2.78;100.00
64192;BME280;50497;50.720;-2.084;2023-02-10T05:54:01;103663.72;;;-2.85;100.00
64192;BME280;50497;50.720;-2.084;2023-02-10T05:56:26;103668.94;;;-2.85;100.00
64192;BME280;50497;50.720;-2.084;2023-02-10T05:58:51;103672.91;;;-2.76;100.00
64192;BME280;50497;50.720;-2.084;2023-02-10T06:01:17;103690.56;;;-2.72;100.00
64192;BME280;50497;50.720;-2.084;2023-02-10T06:03:42;103692.38;;;-2.71;100.00
64192;BME280;50497;50.720;-2.084;2023-02-10T06:06:08;103689.19;;;-2.82;100.00
64192;BME280;50497;50.720;-2.084;2023-02-10T06:08:33;103678.00;;;-2.94;100.00
64192;BME280;50497;50.720;-2.084;2023-02-10T06:10:58;103683.03;;;-2.83;100.00
64192;BME280;50497;50.720;-2.084;2023-02-10T06:13:24;103678.75;;;-2.81;100.00
64192;BME280;50497;50.720;-2.084;2023-02-10T06:15:49;103682.72;;;-2.89;100.00
64192;BME280;50497;50.720;-2.084;2023-02-10T06:18:15;103679.34;;;-2.86;100.00
64192;BME280;50497;50.720;-2.084;2023-02-10T06:20:41;103691.16;;;-2.78;100.00
64192;BME280;50497;50.720;-2.084;2023-02-10T06:23:06;103691.72;;;-2.84;100.00
64192;BME280;50497;50.720;-2.084;2023-02-10T06:25:32;103692.94;;;-2.93;100.00
64192;BME280;50497;50.720;-2.084;2023-02-10T06:28:01;103695.75;;;-3.05;100.00
64192;BME280;50497;50.720;-2.084;2023-02-10T06:30:27;103703.19;;;-3.13;100.00
64192;BME280;50497;50.720;-2.084;2023-02-10T06:32:52;103702.69;;;-3.06;100.00
64192;BME280;50497;50.720;-2.084;2023-02-10T06:35:18;103678.84;;;-3.27;100.00
64192;BME280;50497;50.720;-2.084;2023-02-10T06:37:43;103671.59;;;-3.31;100.00
64192;BME280;50497;50.720;-2.084;2023-02-10T06:40:09;103676.47;;;-3.22;100.00
64192;BME280;50497;50.720;-2.084;2023-02-10T06:42:35;103693.94;;;-3.06;100.00
64192;BME280;50497;50.720;-2.084;2023-02-10T06:45:01;103667.00;;;-3.20;100.00
64192;BME280;50497;50.720;-2.084;2023-02-10T06:47:30;103682.94;;;-3.16;100.00
64192;BME280;50497;50.720;-2.084;2023-02-10T06:49:56;103681.50;;;-3.10;100.00
64192;BME280;50497;50.720;-2.084;2023-02-10T06:52:21;103657.41;;;-3.20;100.00
64192;BME280;50497;50.720;-2.084;2023-02-10T06:54:50;103678.31;;;-3.05;100.00
64192;BME280;50497;50.720;-2.084;2023-02-10T06:57:15;103663.19;;;-3.10;100.00
64192;BME280;50497;50.720;-2.084;2023-02-10T06:59:41;103664.16;;;-3.08;100.00
64192;BME280;50497;50.720;-2.084;2023-02-10T07:02:11;103687.44;;;-2.98;100.00
64192;BME280;50497;50.720;-2.084;2023-02-10T07:04:40;103675.34;;;-3.11;100.00
64192;BME280;50497;50.720;-2.084;2023-02-10T07:07:06;103688.13;;;-3.01;100.00
64192;BME280;50497;50.720;-2.084;2023-02-10T07:09:35;103689.69;;;-3.04;100.00
64192;BME280;50497;50.720;-2.084;2023-02-10T07:12:03;103696.47;;;-3.08;100.00
64192;BME280;50497;50.720;-2.084;2023-02-10T07:14:32;103677.88;;;-3.12;100.00
64192;BME280;50497;50.720;-2.084;2023-02-10T07:17:04;103704.78;;;-3.00;100.00
64192;BME280;50497;50.720;-2.084;2023-02-10T07:19:30;103700.44;;;-3.00;100.00
64192;BME280;50497;50.720;-2.084;2023-02-10T07:21:59;103701.91;;;-3.05;100.00
64192;BME280;50497;50.720;-2.084;2023-02-10T07:24:27;103715.59;;;-2.94;100.00
64192;BME280;50497;50.720;-2.084;2023-02-10T07:26:53;103710.53;;;-2.91;100.00
64192;BME280;50497;50.720;-2.084;2023-02-10T07:29:22;103699.53;;;-3.00;100.00
64192;BME280;50497;50.720;-2.084;2023-02-10T07:31:52;103699.72;;;-2.97;100.00
64192;BME280;50497;50.720;-2.084;2023-02-10T07:34:24;103698.56;;;-2.86;100.00
64192;BME280;50497;50.720;-2.084;2023-02-10T07:36:56;103702.03;;;-2.87;100.00
64192;BME280;50497;50.720;-2.084;2023-02-10T07:39:29;103701.19;;;-2.86;100.00
64192;BME280;50497;50.720;-2.084;2023-02-10T07:41:58;103701.28;;;-2.84;100.00
64192;BME280;50497;50.720;-2.084;2023-02-10T07:44:32;103707.59;;;-2.81;100.00
64192;BME280;50497;50.720;-2.084;2023-02-10T07:47:05;103694.94;;;-2.73;100.00
64192;BME280;50497;50.720;-2.084;2023-02-10T07:49:31;103699.75;;;-2.64;100.00
64192;BME280;50497;50.720;-2.084;2023-02-10T07:52:01;103684.84;;;-2.82;100.00
64192;BME280;50497;50.720;-2.084;2023-02-10T07:54:33;103714.50;;;-2.66;100.00
64192;BME280;50497;50.720;-2.084;2023-02-10T07:56:58;103713.22;;;-2.58;100.00
64192;BME280;50497;50.720;-2.084;2023-02-10T07:59:24;103719.34;;;-2.57;100.00
64192;BME280;50497;50.720;-2.084;2023-02-10T08:01:53;103732.25;;;-2.46;100.00
64192;BME280;50497;50.720;-2.084;2023-02-10T08:04:18;103728.38;;;-2.36;100.00
64192;BME280;50497;50.720;-2.084;2023-02-10T08:06:44;103738.16;;;-2.33;100.00
64192;BME280;50497;50.720;-2.084;2023-02-10T08:09:16;103741.25;;;-2.40;100.00
64192;BME280;50497;50.720;-2.084;2023-02-10T08:11:43;103751.69;;;-2.26;100.00
64192;BME280;50497;50.720;-2.084;2023-02-10T08:14:09;103744.03;;;-2.21;100.00
64192;BME280;50497;50.720;-2.084;2023-02-10T08:16:34;103746.44;;;-2.09;100.00
64192;BME280;50497;50.720;-2.084;2023-02-10T08:19:08;103752.91;;;-2.02;100.00
64192;BME280;50497;50.720;-2.084;2023-02-10T08:21:37;103759.56;;;-2.09;100.00
64192;BME280;50497;50.720;-2.084;2023-02-10T08:24:02;103765.44;;;-1.97;100.00
64192;BME280;50497;50.720;-2.084;2023-02-10T08:26:31;103769.38;;;-1.89;100.00
64192;BME280;50497;50.720;-2.084;2023-02-10T08:28:57;103768.31;;;-1.92;100.00
64192;BME280;50497;50.720;-2.084;2023-02-10T08:31:24;103775.19;;;-1.94;100.00
64192;BME280;50497;50.720;-2.084;2023-02-10T08:33:54;103770.09;;;-1.75;100.00
64192;BME280;50497;50.720;-2.084;2023-02-10T08:36:26;103765.34;;;-1.82;100.00
64192;BME280;50497;50.720;-2.084;2023-02-10T08:38:59;103751.44;;;-1.81;100.00
64192;BME280;50497;50.720;-2.084;2023-02-10T08:41:28;103761.31;;;-1.59;100.00
64192;BME280;50497;50.720;-2.084;2023-02-10T08:43:57;103761.84;;;-1.48;100.00
64192;BME280;50497;50.720;-2.084;2023-02-10T08:46:23;103768.81;;;-1.49;100.00
64192;BME280;50497;50.720;-2.084;2023-02-10T08:48:51;103767.97;;;-1.31;100.00
64192;BME280;50497;50.720;-2.084;2023-02-10T08:51:20;103768.03;;;-1.30;100.00
64192;BME280;50497;50.720;-2.084;2023-02-10T08:53:45;103751.88;;;-1.37;100.00
64192;BME280;50497;50.720;-2.084;2023-02-10T08:56:18;103744.25;;;-1.33;100.00
64192;BME280;50497;50.720;-2.084;2023-02-10T08:58:45;103769.25;;;-1.05;100.00
64192;BME280;50497;50.720;-2.084;2023-02-10T09:01:29;103760.25;;;-0.92;100.00
64192;BME280;50497;50.720;-2.084;2023-02-10T09:03:58;103750.03;;;-0.86;100.00
64192;BME280;50497;50.720;-2.084;2023-02-10T09:06:31;103745.13;;;-0.78;100.00
64192;BME280;50497;50.720;-2.084;2023-02-10T09:08:58;103741.91;;;-0.72;100.00
64192;BME280;50497;50.720;-2.084;2023-02-10T09:11:27;103732.88;;;-0.60;100.00
64192;BME280;50497;50.720;-2.084;2023-02-10T09:13:56;103735.25;;;-0.46;100.00
64192;BME280;50497;50.720;-2.084;2023-02-10T09:16:26;103729.72;;;-0.33;100.00
64192;BME280;50497;50.720;-2.084;2023-02-10T09:18:54;103737.00;;;-0.08;100.00
64192;BME280;50497;50.720;-2.084;2023-02-10T09:21:26;103734.69;;;0.20;100.00
64192;BME280;50497;50.720;-2.084;2023-02-10T09:23:52;103718.56;;;0.33;100.00
64192;BME280;50497;50.720;-2.084;2023-02-10T09:26:22;103727.72;;;0.62;100.00
64192;BME280;50497;50.720;-2.084;2023-02-10T09:28:48;103722.88;;;0.73;100.00
64192;BME280;50497;50.720;-2.084;2023-02-10T09:31:17;103721.25;;;0.98;100.00
64192;BME280;50497;50.720;-2.084;2023-02-10T09:33:43;103718.69;;;1.44;100.00
64192;BME280;50497;50.720;-2.084;2023-02-10T09:36:19;103721.34;;;1.91;100.00
64192;BME280;50497;50.720;-2.084;2023-02-10T09:38:47;103713.56;;;2.73;100.00
64192;BME280;50497;50.720;-2.084;2023-02-10T09:55:13;103709.72;;;6.46;100.00
64192;BME280;50497;50.720;-2.084;2023-02-10T09:57:48;103730.94;;;6.95;100.00
64192;BME280;50497;50.720;-2.084;2023-02-10T10:00:33;103766.38;;;6.94;100.00
64192;BME280;50497;50.720;-2.084;2023-02-10T10:03:03;103781.91;;;7.19;100.00
64192;BME280;50497;50.720;-2.084;2023-02-10T10:08:25;103796.81;;;7.68;100.00
64192;BME280;50497;50.720;-2.084;2023-02-10T10:11:05;103812.16;;;7.86;100.00
64192;BME280;50497;50.720;-2.084;2023-02-10T10:13:40;103812.59;;;8.23;100.00
64192;BME280;50497;50.720;-2.084;2023-02-10T10:19:15;103825.88;;;9.01;100.00
64192;BME280;50497;50.720;-2.084;2023-02-10T10:22:14;103840.94;;;8.93;100.00
64192;BME280;50497;50.720;-2.084;2023-02-10T10:25:21;103826.88;;;9.11;100.00
64192;BME280;50497;50.720;-2.084;2023-02-10T10:28:02;103845.66;;;9.23;100.00
64192;BME280;50497;50.720;-2.084;2023-02-10T10:31:02;103844.22;;;9.68;100.00
64192;BME280;50497;50.720;-2.084;2023-02-10T10:36:18;103843.63;;;10.28;100.00
64192;BME280;50497;50.720;-2.084;2023-02-10T10:39:10;103837.50;;;10.73;100.00
64192;BME280;50497;50.720;-2.084;2023-02-10T10:41:43;103839.34;;;11.01;100.00
64192;BME280;50497;50.720;-2.084;2023-02-10T10:44:18;103839.31;;;10.96;100.00
64192;BME280;50497;50.720;-2.084;2023-02-10T10:46:57;103833.94;;;11.28;100.00
64192;BME280;50497;50.720;-2.084;2023-02-10T10:49:24;103834.84;;;11.29;100.00
64192;BME280;50497;50.720;-2.084;2023-02-10T10:51:52;103825.91;;;10.85;100.00
64192;BME280;50497;50.720;-2.084;2023-02-10T10:54:26;103821.41;;;10.60;100.00
64192;BME280;50497;50.720;-2.084;2023-02-10T10:57:04;103827.59;;;10.37;100.00
64192;BME280;50497;50.720;-2.084;2023-02-10T10:59:39;103801.75;;;10.44;100.00
64192;BME280;50497;50.720;-2.084;2023-02-10T11:02:17;103820.56;;;10.88;100.00
64192;BME280;50497;50.720;-2.084;2023-02-10T11:04:43;103819.63;;;11.43;100.00
64192;BME280;50497;50.720;-2.084;2023-02-10T11:07:19;103821.38;;;11.55;100.00
64192;BME280;50497;50.720;-2.084;2023-02-10T11:09:54;103820.44;;;11.84;100.00
64192;BME280;50497;50.720;-2.084;2023-02-10T11:12:33;103799.69;;;12.28;100.00
64192;BME280;50497;50.720;-2.084;2023-02-10T11:15:00;103819.06;;;12.78;100.00
64192;BME280;50497;50.720;-2.084;2023-02-10T11:17:37;103815.81;;;12.23;100.00
64192;BME280;50497;50.720;-2.084;2023-02-10T11:22:39;103817.16;;;12.92;100.00
64192;BME280;50497;50.720;-2.084;2023-02-10T11:25:28;103819.50;;;13.35;100.00
64192;BME280;50497;50.720;-2.084;2023-02-10T11:27:55;103824.91;;;13.29;100.00
64192;BME280;50497;50.720;-2.084;2023-02-10T11:30:34;103829.38;;;13.31;100.00
64192;BME280;50497;50.720;-2.084;2023-02-10T11:33:01;103807.50;;;13.68;100.00
64192;BME280;50497;50.720;-2.084;2023-02-10T11:35:28;103815.13;;;14.04;100.00
64192;BME280;50497;50.720;-2.084;2023-02-10T11:38:00;103813.75;;;13.69;100.00
64192;BME280;50497;50.720;-2.084;2023-02-10T11:40:48;103790.63;;;14.24;100.00
64192;BME280;50497;50.720;-2.084;2023-02-10T11:43:16;103790.25;;;13.86;100.00
64192;BME280;50497;50.720;-2.084;2023-02-10T11:45:54;103777.69;;;13.84;100.00
64192;BME280;50497;50.720;-2.084;2023-02-10T11:48:23;103783.38;;;14.88;100.00
64192;BME280;50497;50.720;-2.084;2023-02-10T11:51:13;103782.69;;;14.75;100.00
64192;BME280;50497;50.720;-2.084;2023-02-10T11:53:40;103789.75;;;14.22;100.00
64192;BME280;50497;50.720;-2.084;2023-02-10T12:00:17;103793.88;;;13.81;100.00
64192;BME280;50497;50.720;-2.084;2023-02-10T12:08:37;103772.69;;;14.23;100.00
64192;BME280;50497;50.720;-2.084;2023-02-10T12:11:08;103776.78;;;15.06;100.00
64192;BME280;50497;50.720;-2.084;2023-02-10T12:16:37;103769.44;;;14.63;100.00
64192;BME280;50497;50.720;-2.084;2023-02-10T12:27:47;103757.25;;;13.67;100.00
64192;BME280;50497;50.720;-2.084;2023-02-10T12:30:36;103745.63;;;14.31;100.00
64192;BME280;50497;50.720;-2.084;2023-02-10T12:35:52;103743.91;;;14.27;100.00
64192;BME280;50497;50.720;-2.084;2023-02-10T12:38:40;103740.09;;;14.98;100.00
64192;BME280;50497;50.720;-2.084;2023-02-10T12:52:32;103746.91;;;13.35;100.00
64192;BME280;50497;50.720;-2.084;2023-02-10T12:55:10;103742.66;;;13.08;100.00
64192;BME280;50497;50.720;-2.084;2023-02-10T13:00:46;103732.13;;;13.72;100.00
64192;BME280;50497;50.720;-2.084;2023-02-10T13:03:24;103728.63;;;13.65;100.00
64192;BME280;50497;50.720;-2.084;2023-02-10T13:06:25;103725.69;;;13.03;100.00
64192;BME280;50497;50.720;-2.084;2023-02-10T13:09:01;103696.88;;;12.12;100.00
64192;BME280;50497;50.720;-2.084;2023-02-10T13:11:56;103739.16;;;12.98;100.00
64192;BME280;50497;50.720;-2.084;2023-02-10T13:14:27;103710.06;;;12.47;100.00
64192;BME280;50497;50.720;-2.084;2023-02-10T13:16:57;103718.59;;;12.96;100.00
64192;BME280;50497;50.720;-2.084;2023-02-10T13:19:45;103722.25;;;13.72;100.00
64192;BME280;50497;50.720;-2.084;2023-02-10T13:22:18;103715.75;;;13.87;100.00
64192;BME280;50497;50.720;-2.084;2023-02-10T13:33:22;103711.72;;;14.17;100.00
64192;BME280;50497;50.720;-2.084;2023-02-10T13:35:53;103706.63;;;14.56;100.00
64192;BME280;50497;50.720;-2.084;2023-02-10T13:38:20;103699.72;;;15.40;100.00
64192;BME280;50497;50.720;-2.084;2023-02-10T13:40:51;103702.31;;;15.88;100.00
64192;BME280;50497;50.720;-2.084;2023-02-10T13:43:31;103697.72;;;14.53;100.00
64192;BME280;50497;50.720;-2.084;2023-02-10T13:45:58;103698.63;;;13.20;100.00
64192;BME280;50497;50.720;-2.084;2023-02-10T13:48:27;103680.91;;;13.02;100.00
64192;BME280;50497;50.720;-2.084;2023-02-10T13:51:05;103692.06;;;12.59;100.00
64192;BME280;50497;50.720;-2.084;2023-02-10T13:56:25;103687.28;;;11.69;100.00
64192;BME280;50497;50.720;-2.084;2023-02-10T13:59:01;103687.38;;;11.48;100.00
64192;BME280;50497;50.720;-2.084;2023-02-10T14:01:49;103664.31;;;10.76;100.00
64192;BME280;50497;50.720;-2.084;2023-02-10T14:06:52;103676.84;;;10.41;100.00
64192;BME280;50497;50.720;-2.084;2023-02-10T14:09:34;103675.00;;;10.26;100.00
64192;BME280;50497;50.720;-2.084;2023-02-10T14:12:05;103674.16;;;10.41;100.00
64192;BME280;50497;50.720;-2.084;2023-02-10T14:14:36;103648.25;;;10.76;100.00
64192;BME280;50497;50.720;-2.084;2023-02-10T14:17:20;103657.09;;;11.12;100.00
64192;BME280;50497;50.720;-2.084;2023-02-10T14:19:48;103659.63;;;11.49;100.00
64192;BME280;50497;50.720;-2.084;2023-02-10T14:22:33;103659.47;;;11.84;100.00